createdAt,value
2022-08-02T00:00:35.537Z,54.92
2022-08-02T00:03:03.786Z,56.47
2022-08-02T00:05:33.705Z,57.63
2022-08-02T00:08:01.851Z,58.14
2022-08-02T00:10:30.497Z,58.97
2022-08-02T00:12:59.092Z,59.82
2022-08-02T00:15:27.328Z,60.48
2022-08-02T00:17:55.521Z,60.25
2022-08-02T00:20:23.706Z,60.37
2022-08-02T00:22:53.293Z,60.73
2022-08-02T00:25:21.545Z,60.68
2022-08-02T00:27:49.718Z,60.31
2022-08-02T00:30:18.018Z,60.30
2022-08-02T00:32:46.122Z,60.47
2022-08-02T00:35:14.298Z,59.87
2022-08-02T00:37:42.785Z,60.90
2022-08-02T00:40:13.106Z,61.15
2022-08-02T00:42:41.526Z,62.05
2022-08-02T00:45:10.402Z,61.58
2022-08-02T00:47:38.604Z,61.10
2022-08-02T00:50:07.560Z,61.10
2022-08-02T00:52:35.687Z,59.90
2022-08-02T00:55:03.822Z,58.77
2022-08-02T00:57:33.439Z,57.86
2022-08-02T01:00:01.548Z,57.71
2022-08-02T01:02:29.775Z,58.14
2022-08-02T01:04:58.020Z,58.99
2022-08-02T01:07:26.669Z,58.85
2022-08-02T01:09:55.084Z,58.74
2022-08-02T01:12:23.430Z,58.44
2022-08-02T01:14:54.004Z,58.55
2022-08-02T01:17:38.105Z,59.27
2022-08-02T01:20:12.524Z,58.81
2022-08-02T01:23:02.090Z,58.99
2022-08-02T01:25:46.489Z,58.64
2022-08-02T01:28:28.072Z,59.51
2022-08-02T01:31:00.298Z,59.66
2022-08-02T01:33:37.993Z,58.85
2022-08-02T01:36:07.211Z,58.60
2022-08-02T01:38:39.611Z,58.18
2022-08-02T01:41:09.583Z,58.19
2022-08-02T01:43:39.632Z,57.88
2022-08-02T01:46:08.596Z,58.90
2022-08-02T01:48:36.739Z,57.98
2022-08-02T01:51:05.420Z,58.21
2022-08-02T01:53:34.376Z,58.21
2022-08-02T01:56:06.870Z,58.20
2022-08-02T01:58:36.960Z,57.82
2022-08-02T02:01:18.579Z,57.80
2022-08-02T02:03:48.676Z,57.48
2022-08-02T02:06:18.236Z,57.32
2022-08-02T02:08:46.656Z,56.85
2022-08-02T02:12:06.427Z,55.92
2022-08-02T02:14:05.209Z,55.82
2022-08-02T02:16:35.125Z,55.37
2022-08-02T02:19:07.284Z,55.42
2022-08-02T02:21:35.372Z,55.10
2022-08-02T02:24:07.195Z,55.39
2022-08-02T02:26:41.392Z,54.99
2022-08-02T02:29:22.064Z,54.99
2022-08-02T02:31:54.620Z,55.61
2022-08-02T02:34:26.889Z,55.43
2022-08-02T02:36:55.369Z,55.13
2022-08-02T02:39:24.509Z,55.54
2022-08-02T02:41:55.186Z,55.55
2022-08-02T02:44:24.172Z,55.71
2022-08-02T02:46:55.341Z,55.73
2022-08-02T02:49:24.520Z,55.48
2022-08-02T02:51:53.472Z,56.32
2022-08-02T03:06:58.008Z,57.97
2022-08-02T03:09:26.236Z,58.18
2022-08-02T03:11:55.053Z,58.93
2022-08-02T03:14:25.086Z,58.28
2022-08-02T03:16:55.822Z,58.56
2022-08-02T03:19:24.309Z,59.60
2022-08-02T03:22:02.924Z,60.11
2022-08-02T03:24:31.151Z,60.48
2022-08-02T03:26:59.779Z,60.82
2022-08-02T03:29:31.471Z,61.06
2022-08-02T03:32:02.740Z,61.64
2022-08-02T03:34:31.074Z,61.55
2022-08-02T03:37:01.587Z,61.85
2022-08-02T03:39:33.420Z,61.59
2022-08-02T03:42:02.611Z,62.94
2022-08-02T03:44:31.485Z,62.35
2022-08-02T03:47:00.012Z,61.96
2022-08-02T03:49:29.275Z,61.41
2022-08-02T03:51:57.852Z,62.13
2022-08-02T03:54:33.087Z,61.78
2022-08-02T03:57:15.612Z,62.33
2022-08-02T03:59:45.301Z,62.42
2022-08-02T04:02:14.711Z,62.05
2022-08-02T04:04:43.341Z,62.91
2022-08-02T04:07:11.477Z,62.33
2022-08-02T04:09:39.733Z,62.99
2022-08-02T04:12:10.994Z,62.59
2022-08-02T04:14:40.809Z,63.48
2022-08-02T04:17:10.164Z,62.32
2022-08-02T04:19:40.287Z,63.22
2022-08-02T04:22:10.770Z,63.51
2022-08-02T04:24:41.485Z,62.71
2022-08-02T04:27:49.263Z,62.50
2022-08-02T04:30:03.292Z,62.65
2022-08-02T04:32:32.567Z,63.35
2022-08-02T04:38:05.504Z,63.13
2022-08-02T04:40:38.822Z,62.51
2022-08-02T04:43:07.149Z,63.67
2022-08-02T04:45:37.229Z,63.43
2022-08-02T04:48:06.566Z,63.15
2022-08-02T04:50:35.025Z,62.37
2022-08-02T04:53:03.467Z,63.59
2022-08-02T04:55:31.650Z,63.70
2022-08-02T04:58:03.761Z,63.02
2022-08-02T05:00:36.530Z,62.09
2022-08-02T05:03:07.505Z,62.99
2022-08-02T05:05:35.685Z,62.68
2022-08-02T05:08:06.912Z,62.88
2022-08-02T05:10:36.082Z,61.82
2022-08-02T05:13:06.293Z,61.81
2022-08-02T05:15:34.473Z,61.98
2022-08-02T05:18:04.094Z,61.89
2022-08-02T05:20:32.440Z,61.38
2022-08-02T05:23:00.562Z,61.29
2022-08-02T05:25:28.856Z,61.14
2022-08-02T05:27:57.143Z,61.25
2022-08-02T05:30:25.405Z,61.57
2022-08-02T05:32:55.041Z,60.69
2022-08-02T05:35:25.915Z,60.56
2022-08-02T05:37:54.249Z,60.59
2022-08-02T05:40:25.865Z,60.50
2022-08-02T05:42:54.540Z,60.19
2022-08-02T05:45:23.006Z,60.36
2022-08-02T05:47:51.402Z,59.61
2022-08-02T05:50:20.042Z,59.36
2022-08-02T05:52:53.047Z,58.08
2022-08-02T05:55:26.395Z,57.79
2022-08-02T05:57:59.619Z,57.28
2022-08-02T06:00:32.215Z,56.67
2022-08-02T06:03:05.702Z,56.28
2022-08-02T06:05:36.636Z,58.06
2022-08-02T06:08:09.990Z,57.45
2022-08-02T06:10:39.273Z,57.10
2022-08-02T06:13:14.416Z,57.51
2022-08-02T06:15:53.622Z,57.98
2022-08-02T06:18:28.336Z,58.29
2022-08-02T06:22:40.238Z,57.94
2022-08-02T06:23:57.581Z,57.38
2022-08-02T06:26:28.126Z,56.89
2022-08-02T06:28:58.461Z,56.79
2022-08-02T06:31:27.180Z,56.96
2022-08-02T06:33:55.685Z,57.09
2022-08-02T06:36:30.925Z,57.45
2022-08-02T06:39:05.094Z,57.39
2022-08-02T06:41:41.067Z,57.31
2022-08-02T06:44:45.530Z,57.79
2022-08-02T06:47:11.180Z,57.75
2022-08-02T06:49:52.599Z,58.39
2022-08-02T06:52:27.763Z,58.71
2022-08-02T06:54:59.434Z,58.08
2022-08-02T06:57:28.484Z,58.40
2022-08-02T06:59:57.042Z,58.55
2022-08-02T07:02:25.623Z,58.82
2022-08-02T07:04:56.300Z,58.38
2022-08-02T07:07:24.627Z,58.31
2022-08-02T07:09:56.512Z,58.43
2022-08-02T07:12:32.541Z,58.00
2022-08-02T07:15:01.314Z,57.87
2022-08-02T07:17:29.863Z,58.49
2022-08-02T07:19:59.922Z,58.61
2022-08-02T07:22:29.400Z,58.40
2022-08-02T07:24:59.055Z,58.61
2022-08-02T07:27:27.332Z,59.62
2022-08-02T07:29:57.104Z,59.58
2022-08-02T07:32:28.791Z,59.18
2022-08-02T07:34:57.949Z,59.56
2022-08-02T07:37:53.114Z,60.35
2022-08-02T07:40:19.885Z,60.62
2022-08-02T07:42:49.853Z,60.27
2022-08-02T07:45:19.428Z,60.01
2022-08-02T07:47:50.317Z,59.54
2022-08-02T07:50:19.860Z,58.98
2022-08-02T07:52:48.811Z,58.94
2022-08-02T07:55:20.525Z,58.55
2022-08-02T07:57:50.386Z,58.78
2022-08-02T08:00:20.608Z,57.20
2022-08-02T08:02:48.987Z,56.99
2022-08-02T08:05:18.796Z,57.13
2022-08-02T08:07:49.418Z,57.39
2022-08-02T08:10:17.710Z,56.77
2022-08-02T08:12:46.087Z,57.08
2022-08-02T08:15:14.404Z,56.81
2022-08-02T08:17:44.369Z,57.37
2022-08-02T08:20:15.910Z,57.11
2022-08-02T08:22:44.441Z,58.03
2022-08-02T08:25:12.846Z,56.54
2022-08-02T08:27:50.027Z,56.71
2022-08-02T08:30:18.460Z,56.12
2022-08-02T08:32:48.357Z,55.47
2022-08-02T08:35:18.070Z,55.61
2022-08-02T08:37:46.682Z,55.18
2022-08-02T08:42:48.481Z,57.03
2022-08-02T08:45:18.196Z,55.69
2022-08-02T08:47:53.355Z,56.77
2022-08-02T08:50:25.985Z,56.37
2022-08-02T08:52:58.452Z,57.81
2022-08-02T08:55:28.537Z,58.12
2022-08-02T08:57:57.523Z,58.06
2022-08-02T09:00:25.938Z,57.80
2022-08-02T09:02:55.644Z,57.83
2022-08-02T09:05:24.121Z,57.26
2022-08-02T09:07:53.993Z,58.16
2022-08-02T09:10:42.472Z,58.27
2022-08-02T09:13:31.271Z,57.30
2022-08-02T09:16:12.090Z,56.56
2022-08-02T09:18:45.711Z,57.18
2022-08-02T09:21:16.249Z,57.09
2022-08-02T09:23:46.859Z,57.15
2022-08-02T09:26:16.561Z,57.46
2022-08-02T09:28:46.584Z,57.32
2022-08-02T09:31:18.186Z,57.30
2022-08-02T09:33:52.472Z,56.38
2022-08-02T09:36:21.283Z,56.22
2022-08-02T09:39:01.635Z,54.46
2022-08-02T09:41:31.502Z,54.96
2022-08-02T09:44:05.087Z,54.60
2022-08-02T09:46:38.299Z,54.43
2022-08-02T09:49:10.374Z,53.20
2022-08-02T09:51:50.912Z,52.24
2022-08-02T09:54:21.134Z,51.91
2022-08-02T09:56:53.774Z,51.11
2022-08-02T09:59:24.907Z,51.86
2022-08-02T10:02:17.097Z,51.98
2022-08-02T10:04:52.599Z,52.03
2022-08-02T10:07:23.583Z,51.05
2022-08-02T10:09:52.392Z,50.81
2022-08-02T10:12:22.373Z,50.27
2022-08-02T10:14:54.531Z,50.32
2022-08-02T10:17:23.155Z,49.54
2022-08-02T10:20:02.232Z,48.49
2022-08-02T10:22:31.990Z,48.39
2022-08-02T10:25:00.275Z,48.07
2022-08-02T10:27:43.161Z,48.73
2022-08-02T10:30:19.779Z,48.90
2022-08-02T10:32:48.985Z,48.08
2022-08-02T10:35:25.587Z,48.25
2022-08-02T10:37:55.718Z,49.48
2022-08-02T10:40:27.535Z,49.08
2022-08-02T10:43:01.026Z,48.45
2022-08-02T10:45:29.885Z,47.40
2022-08-02T10:48:03.791Z,45.74
2022-08-02T10:50:55.764Z,46.11
2022-08-02T10:53:33.873Z,46.08
2022-08-02T10:56:03.871Z,45.66
2022-08-02T10:58:33.852Z,44.35
2022-08-02T11:01:12.640Z,44.50
2022-08-02T11:03:42.232Z,43.98
2022-08-02T11:06:25.985Z,43.41
2022-08-02T11:09:32.960Z,44.41
2022-08-02T11:12:03.691Z,44.44
2022-08-02T11:14:34.786Z,45.10
2022-08-02T11:17:14.035Z,44.22
2022-08-02T11:20:18.066Z,43.41
2022-08-02T11:22:52.907Z,43.04
2022-08-02T11:26:02.859Z,42.83
2022-08-02T11:28:25.837Z,41.53
2022-08-02T11:30:59.038Z,40.79
2022-08-02T11:33:36.688Z,40.44
2022-08-02T11:36:07.604Z,39.97
2022-08-02T11:38:42.225Z,40.92
2022-08-02T11:41:13.705Z,41.31
2022-08-02T11:44:02.096Z,40.86
2022-08-02T11:46:30.530Z,40.60
2022-08-02T11:49:12.802Z,40.74
2022-08-02T11:51:59.687Z,42.47
2022-08-02T11:54:30.835Z,41.92
2022-08-02T11:57:19.878Z,41.03
2022-08-02T11:59:50.786Z,41.29
2022-08-02T12:02:19.675Z,40.95
2022-08-02T12:04:58.052Z,41.58
2022-08-02T12:07:35.406Z,42.28
2022-08-02T12:10:40.745Z,40.84
2022-08-02T12:13:09.394Z,41.15
2022-08-02T12:16:15.237Z,39.02
2022-08-02T12:19:07.334Z,38.37
2022-08-02T12:21:35.774Z,37.40
2022-08-02T12:24:07.006Z,37.27
2022-08-02T12:26:45.255Z,36.82
2022-08-02T12:29:56.420Z,36.42
2022-08-02T12:32:32.040Z,35.27
2022-08-02T12:35:06.466Z,39.14
2022-08-02T12:37:35.125Z,38.39
2022-08-02T12:40:25.454Z,35.94
2022-08-02T12:43:05.400Z,34.68
2022-08-02T12:45:49.237Z,34.26
2022-08-02T12:48:37.415Z,34.19
2022-08-02T12:51:55.772Z,34.77
2022-08-02T12:54:26.869Z,33.91
2022-08-02T12:57:05.614Z,33.12
2022-08-02T12:59:40.255Z,33.95
2022-08-02T13:02:11.658Z,33.56
2022-08-02T13:04:50.056Z,32.97
2022-08-02T13:07:19.795Z,31.54
2022-08-02T13:10:00.308Z,33.16
2022-08-02T13:12:37.828Z,33.33
2022-08-02T13:15:49.724Z,31.95
2022-08-02T13:18:06.681Z,33.40
2022-08-02T13:20:35.054Z,33.58
2022-08-02T13:23:04.387Z,32.58
2022-08-02T13:25:35.698Z,32.18
2022-08-02T13:28:09.213Z,31.77
2022-08-02T13:30:39.038Z,32.19
2022-08-02T13:33:07.523Z,32.61
2022-08-02T13:35:38.341Z,32.45
2022-08-02T13:38:11.743Z,32.00
2022-08-02T13:41:03.886Z,31.69
2022-08-02T13:43:54.065Z,32.18
2022-08-02T13:46:28.749Z,31.18
2022-08-02T13:48:59.547Z,30.47
2022-08-02T13:51:27.986Z,29.72
2022-08-02T13:53:56.102Z,29.50
2022-08-02T13:56:35.213Z,29.65
2022-08-02T13:59:53.907Z,29.50
2022-08-02T14:01:57.287Z,29.97
2022-08-02T14:04:26.408Z,29.07
2022-08-02T14:06:58.888Z,28.43
2022-08-02T14:09:27.635Z,28.34
2022-08-02T14:11:57.223Z,27.67
2022-08-02T14:14:25.546Z,26.70
2022-08-02T14:16:56.534Z,29.08
2022-08-02T14:19:24.816Z,28.78
2022-08-02T14:21:53.041Z,27.84
2022-08-02T14:24:39.742Z,28.53
2022-08-02T14:27:08.241Z,29.60
2022-08-02T14:29:36.676Z,31.07
2022-08-02T14:32:07.059Z,31.30
2022-08-02T14:34:35.721Z,31.24
2022-08-02T14:37:06.906Z,29.52
2022-08-02T14:39:42.936Z,27.83
2022-08-02T14:42:23.763Z,27.33
2022-08-02T14:44:55.042Z,27.20
2022-08-02T14:47:24.760Z,27.20
2022-08-02T14:49:52.900Z,27.05
2022-08-02T14:52:21.132Z,26.45
2022-08-02T14:54:49.672Z,26.34
2022-08-02T14:57:19.039Z,26.33
2022-08-02T14:59:47.599Z,26.63
2022-08-02T15:02:16.289Z,26.21
2022-08-02T15:04:46.139Z,26.15
2022-08-02T15:07:15.104Z,26.34
2022-08-02T15:09:43.229Z,26.30
2022-08-02T15:12:12.821Z,26.05
2022-08-02T15:14:41.319Z,25.82
2022-08-02T15:17:10.236Z,26.74
2022-08-02T15:19:58.913Z,28.55
2022-08-02T15:22:30.031Z,31.21
2022-08-02T15:24:59.459Z,31.84
2022-08-02T15:27:27.821Z,31.86
2022-08-02T15:30:00.195Z,31.68
2022-08-02T15:32:28.674Z,30.29
2022-08-02T15:34:59.878Z,27.93
2022-08-02T15:37:32.526Z,27.73
2022-08-02T15:40:01.004Z,27.09
2022-08-02T15:42:30.323Z,27.07
2022-08-02T15:45:00.327Z,26.31
2022-08-02T15:47:28.730Z,25.01
2022-08-02T15:49:58.697Z,25.68
2022-08-02T15:52:27.255Z,24.96
2022-08-02T15:55:07.422Z,25.11
2022-08-02T15:57:36.510Z,24.59
2022-08-02T16:00:06.051Z,24.28
2022-08-02T16:02:34.331Z,23.74
2022-08-02T16:05:02.794Z,23.97
2022-08-02T16:07:42.312Z,24.38
2022-08-02T16:10:12.398Z,24.12
2022-08-02T16:12:41.131Z,25.81
2022-08-02T16:15:10.732Z,25.05
2022-08-02T16:17:49.041Z,24.84
2022-08-02T16:20:24.361Z,25.47
2022-08-02T16:22:52.870Z,25.33
2022-08-02T16:25:22.530Z,24.97
2022-08-02T16:27:59.516Z,24.62
2022-08-02T16:30:37.810Z,25.18
2022-08-02T16:33:06.296Z,25.41
2022-08-02T16:35:34.981Z,25.22
2022-08-02T16:38:03.171Z,24.42
2022-08-02T16:40:34.648Z,25.90
2022-08-02T16:43:03.404Z,27.21
2022-08-02T16:45:37.722Z,27.75
2022-08-02T16:50:56.227Z,29.18
2022-08-02T16:53:36.298Z,28.81
2022-08-02T16:56:07.421Z,27.32
2022-08-02T16:58:36.169Z,27.16
2022-08-02T17:01:05.801Z,27.48
2022-08-02T17:03:56.867Z,27.36
2022-08-02T17:06:22.417Z,27.10
2022-08-02T17:08:56.406Z,27.41
2022-08-02T17:11:26.146Z,28.02
2022-08-02T17:13:54.449Z,28.47
2022-08-02T17:16:25.718Z,28.28
2022-08-02T17:18:56.702Z,28.33
2022-08-02T17:21:25.122Z,28.19
2022-08-02T17:24:07.573Z,28.59
2022-08-02T17:26:39.004Z,28.82
2022-08-02T17:29:14.426Z,28.82
2022-08-02T17:32:05.654Z,29.15
2022-08-02T17:34:35.813Z,29.87
2022-08-02T17:37:05.604Z,31.32
2022-08-02T17:39:44.066Z,31.47
2022-08-02T17:42:23.452Z,32.26
2022-08-02T17:44:53.718Z,32.77
2022-08-02T17:47:22.325Z,33.68
2022-08-02T17:52:51.432Z,34.70
2022-08-02T17:55:21.617Z,35.03
2022-08-02T17:57:57.021Z,35.57
2022-08-02T18:00:33.927Z,36.04
2022-08-02T18:03:05.668Z,35.72
2022-08-02T18:08:23.936Z,36.11
2022-08-02T18:10:52.842Z,36.19
2022-08-02T18:13:22.917Z,37.71
2022-08-02T18:18:41.885Z,37.54
2022-08-02T18:21:22.255Z,37.87
2022-08-02T18:23:58.813Z,38.18
2022-08-02T18:26:29.247Z,38.70
2022-08-02T18:29:00.032Z,39.27
2022-08-02T18:31:28.496Z,39.67
2022-08-02T18:34:07.781Z,40.11
2022-08-02T18:36:36.176Z,40.91
2022-08-02T18:39:15.683Z,41.17
2022-08-02T18:41:47.861Z,41.60
2022-08-02T18:44:18.755Z,43.05
2022-08-02T18:46:49.399Z,43.71
2022-08-02T18:49:17.988Z,43.40
2022-08-02T18:51:49.271Z,43.34
2022-08-02T18:54:30.746Z,43.80
2022-08-02T18:57:04.257Z,43.48
2022-08-02T18:59:54.715Z,43.46
2022-08-02T19:02:24.943Z,43.98
2022-08-02T19:04:56.376Z,44.25
2022-08-02T19:07:25.486Z,44.92
2022-08-02T19:10:14.000Z,44.74
2022-08-02T19:12:42.485Z,44.65
2022-08-02T19:15:17.316Z,44.17
2022-08-02T19:17:55.302Z,43.80
2022-08-02T19:20:29.098Z,44.29
2022-08-02T19:22:58.039Z,43.95
2022-08-02T19:25:28.151Z,43.83
2022-08-02T19:28:09.819Z,43.15
2022-08-02T19:30:45.924Z,43.36
2022-08-02T19:33:54.856Z,43.50
2022-08-02T19:36:08.098Z,43.98
2022-08-02T19:38:40.674Z,44.11
2022-08-02T19:41:17.317Z,44.49
2022-08-02T19:44:23.899Z,44.55
2022-08-02T19:46:42.461Z,44.26
2022-08-02T19:49:39.211Z,44.15
2022-08-02T19:52:20.520Z,44.24
2022-08-02T19:54:55.740Z,44.31
2022-08-02T19:57:26.226Z,44.30
2022-08-02T19:59:57.305Z,44.43
2022-08-02T20:02:28.405Z,44.86
2022-08-02T20:04:57.731Z,45.34
2022-08-02T20:07:55.246Z,45.01
2022-08-02T20:10:24.617Z,46.00
2022-08-02T20:12:54.993Z,45.70
2022-08-02T20:15:23.970Z,45.55
2022-08-02T20:18:26.829Z,46.04
2022-08-02T20:20:57.747Z,45.99
2022-08-02T20:23:33.536Z,45.60
2022-08-02T20:26:10.616Z,46.06
2022-08-02T20:28:41.587Z,46.39
2022-08-02T20:31:13.138Z,46.33
2022-08-02T20:33:55.828Z,46.08
2022-08-02T20:36:25.392Z,45.85
2022-08-02T20:38:54.363Z,46.09
2022-08-02T20:41:23.541Z,46.94
2022-08-02T20:44:16.167Z,47.19
2022-08-02T20:46:59.258Z,47.54
2022-08-02T20:49:40.502Z,48.75
2022-08-02T20:52:23.117Z,48.76
2022-08-02T20:54:53.786Z,49.20
2022-08-02T20:57:48.573Z,49.39
2022-08-02T21:00:11.803Z,48.77
2022-08-02T21:02:40.466Z,50.05
2022-08-02T21:05:15.383Z,49.97
2022-08-02T21:07:47.556Z,50.33
2022-08-02T21:10:16.591Z,50.25
2022-08-02T21:12:45.382Z,50.43
2022-08-02T21:15:13.973Z,50.56
2022-08-02T21:17:45.842Z,50.88
2022-08-02T21:20:27.168Z,51.40
2022-08-02T21:22:55.976Z,51.41
2022-08-02T21:25:50.779Z,52.61
2022-08-02T21:28:17.695Z,52.44
2022-08-02T21:30:46.672Z,52.71
2022-08-02T21:33:23.520Z,52.54
2022-08-02T21:35:54.263Z,53.44
2022-08-02T21:38:36.163Z,53.67
2022-08-02T21:41:12.097Z,54.02
2022-08-02T21:43:43.916Z,53.61
2022-08-02T21:46:14.735Z,53.58
2022-08-02T21:48:42.953Z,53.90
2022-08-02T21:51:16.032Z,53.97
2022-08-02T21:54:16.815Z,54.61
2022-08-02T21:56:32.642Z,54.84
2022-08-02T21:59:15.543Z,54.30
2022-08-02T22:01:52.702Z,54.51
2022-08-02T22:04:33.032Z,54.72
2022-08-02T22:07:03.193Z,54.64
2022-08-02T22:09:43.313Z,53.88
2022-08-02T22:12:18.359Z,54.61
2022-08-02T22:14:54.195Z,54.63
2022-08-02T22:17:50.411Z,53.95
2022-08-02T22:20:13.617Z,54.42
2022-08-02T22:22:43.501Z,55.08
2022-08-02T22:25:26.465Z,55.40
2022-08-02T22:28:12.006Z,54.17
2022-08-02T22:34:01.119Z,54.25
2022-08-02T22:36:30.689Z,54.40
2022-08-02T22:39:01.005Z,55.00
2022-08-02T22:42:00.880Z,55.03
2022-08-02T22:44:20.141Z,54.57
2022-08-02T22:46:49.876Z,54.11
2022-08-02T22:49:38.847Z,54.92
2022-08-02T22:52:07.768Z,55.03
2022-08-02T22:54:37.415Z,54.63
2022-08-02T22:57:07.045Z,55.49
2022-08-02T22:58:43.670Z,37.57
2022-08-02T22:58:48.693Z,28.13
2022-08-02T22:58:49.180Z,34.36
2022-08-02T22:59:00.141Z,35.98
2022-08-02T22:59:11.854Z,54.49
2022-08-02T22:59:42.449Z,54.81
2022-08-02T23:02:11.236Z,55.07
2022-08-02T23:04:41.632Z,55.11
2022-08-02T23:07:09.823Z,55.92
2022-08-02T23:09:39.491Z,56.78
2022-08-02T23:12:08.122Z,57.37
2022-08-02T23:14:36.518Z,57.21
2022-08-02T23:17:22.126Z,57.52
2022-08-02T23:19:52.885Z,56.84
2022-08-02T23:22:29.359Z,56.27
2022-08-02T23:25:02.366Z,57.46
2022-08-02T23:27:31.694Z,57.54
2022-08-02T23:30:00.359Z,56.82
2022-08-02T23:32:29.334Z,56.26
2022-08-02T23:35:00.681Z,56.35
2022-08-02T23:37:28.858Z,57.35
2022-08-02T23:40:38.672Z,57.10
2022-08-02T23:43:14.448Z,57.04
2022-08-02T23:45:46.794Z,58.07
2022-08-02T23:48:15.083Z,58.12
2022-08-02T23:50:43.304Z,57.76
2022-08-02T23:53:11.470Z,57.82
2022-08-02T23:55:41.261Z,57.39
2022-08-02T23:58:09.630Z,57.40
